createdAt,value
2022-11-15T00:01:54.594Z,26.10
2022-11-15T00:04:45.993Z,27.77
2022-11-15T00:07:54.740Z,24.02
2022-11-15T00:10:44.093Z,24.98
2022-11-15T00:13:33.779Z,27.67
2022-11-15T00:16:23.132Z,24.10
2022-11-15T00:19:12.548Z,25.50
2022-11-15T00:22:04.262Z,31.27
2022-11-15T00:24:53.436Z,24.60
2022-11-15T00:27:43.477Z,27.05
2022-11-15T00:30:32.863Z,26.55
2022-11-15T00:33:22.017Z,24.73
2022-11-15T00:36:13.611Z,21.77
2022-11-15T00:39:05.127Z,23.17
2022-11-15T00:41:54.461Z,28.23
2022-11-15T00:44:43.315Z,27.95
2022-11-15T00:47:35.144Z,28.02
2022-11-15T00:50:24.246Z,25.83
2022-11-15T00:53:13.337Z,24.58
2022-11-15T00:56:05.641Z,23.95
2022-11-15T00:58:54.850Z,22.85
2022-11-15T01:01:43.900Z,22.88
2022-11-15T01:04:33.165Z,20.73
2022-11-15T01:07:22.313Z,24.73
2022-11-15T01:10:12.505Z,21.20
2022-11-15T01:13:04.384Z,20.58
2022-11-15T01:15:53.604Z,25.33
2022-11-15T01:18:43.444Z,23.50
2022-11-15T01:21:32.760Z,23.98
2022-11-15T01:24:22.265Z,24.85
2022-11-15T01:27:11.327Z,22.60
2022-11-15T01:30:02.967Z,21.98
2022-11-15T01:32:52.092Z,19.75
2022-11-15T01:35:43.923Z,22.38
2022-11-15T01:38:33.144Z,20.10
2022-11-15T01:41:24.629Z,18.35
2022-11-15T01:44:48.535Z,17.08
2022-11-15T01:47:44.753Z,15.50
2022-11-15T01:53:28.036Z,18.65
2022-11-15T01:56:20.844Z,20.08
2022-11-15T01:59:12.235Z,23.98
2022-11-15T02:02:01.816Z,21.73
2022-11-15T02:04:53.536Z,22.10
2022-11-15T02:07:42.680Z,33.17
2022-11-15T02:10:32.508Z,28.50
2022-11-15T02:13:22.160Z,26.77
2022-11-15T02:16:38.464Z,21.98
2022-11-15T02:19:53.149Z,23.30
2022-11-15T02:22:55.768Z,20.80
2022-11-15T02:25:59.154Z,20.38
2022-11-15T02:29:02.625Z,17.98
2022-11-15T02:32:00.236Z,16.20
2022-11-15T02:34:58.952Z,16.58
2022-11-15T02:37:55.744Z,14.98
2022-11-15T02:40:50.497Z,17.95
2022-11-15T02:44:01.324Z,16.65
2022-11-15T02:47:09.866Z,19.85
2022-11-15T02:50:02.866Z,16.85
2022-11-15T02:52:53.347Z,15.20
2022-11-15T02:55:45.899Z,14.63
2022-11-15T02:58:56.263Z,16.35
2022-11-15T03:01:59.272Z,17.15
2022-11-15T03:04:58.274Z,16.38
2022-11-15T03:08:00.902Z,15.25
2022-11-15T03:11:00.763Z,15.00
2022-11-15T03:13:57.303Z,16.80
2022-11-15T03:16:53.202Z,16.00
2022-11-15T03:19:48.307Z,17.63
2022-11-15T03:22:45.674Z,18.08
2022-11-15T03:25:36.787Z,16.92
2022-11-15T03:28:32.022Z,15.55
2022-11-15T03:31:38.278Z,17.97
2022-11-15T03:34:33.039Z,15.73
2022-11-15T03:37:24.681Z,14.43
2022-11-15T03:40:17.182Z,13.45
2022-11-15T03:43:12.685Z,14.48
2022-11-15T03:46:07.538Z,16.17
2022-11-15T03:49:03.460Z,14.70
2022-11-15T03:51:52.933Z,15.50
2022-11-15T03:54:52.375Z,16.33
2022-11-15T03:57:43.727Z,13.68
2022-11-15T04:00:33.118Z,15.38
2022-11-15T04:03:22.105Z,13.20
2022-11-15T04:06:11.506Z,12.55
2022-11-15T04:09:00.851Z,16.48
2022-11-15T04:11:50.105Z,12.88
2022-11-15T04:15:02.070Z,14.18
2022-11-15T04:17:53.176Z,13.60
2022-11-15T04:20:54.665Z,15.25
2022-11-15T04:23:55.951Z,13.98
2022-11-15T04:26:45.396Z,13.18
2022-11-15T04:29:40.583Z,12.90
2022-11-15T04:32:32.098Z,14.75
2022-11-15T04:35:21.268Z,14.07
2022-11-15T04:38:12.717Z,16.50
2022-11-15T04:41:01.591Z,13.68
2022-11-15T04:43:50.564Z,12.65
2022-11-15T04:46:40.005Z,12.82
2022-11-15T04:49:31.547Z,12.73
2022-11-15T04:52:20.372Z,12.98
2022-11-15T04:55:10.413Z,12.57
2022-11-15T04:58:02.954Z,15.70
2022-11-15T05:00:52.036Z,15.02
2022-11-15T05:03:53.569Z,13.30
2022-11-15T05:06:45.465Z,20.15
2022-11-15T05:09:34.512Z,15.77
2022-11-15T05:12:23.715Z,13.70
2022-11-15T05:15:13.636Z,13.85
2022-11-15T05:18:03.577Z,18.00
2022-11-15T05:20:52.622Z,14.43
2022-11-15T05:23:45.051Z,16.48
2022-11-15T05:26:34.138Z,15.85
2022-11-15T05:29:26.500Z,15.82
2022-11-15T05:32:16.269Z,17.00
2022-11-15T05:35:05.598Z,14.77
2022-11-15T05:37:54.736Z,17.20
2022-11-15T05:40:46.568Z,14.82
2022-11-15T05:43:39.644Z,17.73
2022-11-15T05:46:28.919Z,19.08
2022-11-15T05:49:23.098Z,21.15
2022-11-15T05:52:15.497Z,16.92
2022-11-15T05:55:07.039Z,19.70
2022-11-15T05:57:58.734Z,17.10
2022-11-15T06:00:47.511Z,20.80
2022-11-15T06:03:36.709Z,20.40
2022-11-15T06:06:25.745Z,18.00
2022-11-15T06:09:14.639Z,15.63
2022-11-15T06:12:03.697Z,23.50
2022-11-15T06:14:55.196Z,23.02
2022-11-15T06:17:44.412Z,21.55
2022-11-15T06:20:33.965Z,24.23
2022-11-15T06:23:22.932Z,24.33
2022-11-15T06:26:11.886Z,23.42
2022-11-15T06:29:01.252Z,21.95
2022-11-15T06:31:53.860Z,23.00
2022-11-15T06:34:43.112Z,25.40
2022-11-15T06:37:33.954Z,23.60
2022-11-15T06:40:22.913Z,23.60
2022-11-15T06:43:11.852Z,31.08
2022-11-15T06:46:02.235Z,30.38
2022-11-15T06:48:54.767Z,17.50
2022-11-15T06:51:43.647Z,21.90
2022-11-15T06:54:32.604Z,15.32
2022-11-15T06:57:21.495Z,17.30
2022-11-15T07:00:12.506Z,15.65
2022-11-15T07:03:04.472Z,14.90
2022-11-15T07:06:06.826Z,17.35
2022-11-15T07:08:56.592Z,15.65
2022-11-15T07:11:45.586Z,13.38
2022-11-15T07:14:34.514Z,16.38
2022-11-15T07:17:23.534Z,14.30
2022-11-15T07:20:14.456Z,17.88
2022-11-15T07:23:08.008Z,15.88
2022-11-15T07:25:56.962Z,14.40
2022-11-15T07:28:45.967Z,15.45
2022-11-15T07:31:34.888Z,15.50
2022-11-15T07:34:24.882Z,14.75
2022-11-15T07:37:14.987Z,14.25
2022-11-15T07:40:07.168Z,16.00
2022-11-15T07:42:59.499Z,17.67
2022-11-15T07:45:50.790Z,17.90
2022-11-15T07:48:44.851Z,15.38
2022-11-15T07:51:34.330Z,16.83
2022-11-15T07:54:23.334Z,14.65
2022-11-15T07:57:14.899Z,16.63
2022-11-15T08:00:04.428Z,14.98
2022-11-15T08:02:53.417Z,12.32
2022-11-15T08:05:43.664Z,12.63
2022-11-15T08:08:32.979Z,11.85
2022-11-15T08:11:22.362Z,13.10
2022-11-15T08:14:14.210Z,13.48
2022-11-15T08:17:03.320Z,16.15
2022-11-15T08:19:52.234Z,14.23
2022-11-15T08:22:41.478Z,8.70
2022-11-15T08:25:32.089Z,12.38
2022-11-15T08:28:22.165Z,15.95
2022-11-15T08:31:18.002Z,12.93
2022-11-15T08:34:07.151Z,31.60
2022-11-15T08:36:56.341Z,20.20
2022-11-15T08:39:45.513Z,14.50
2022-11-15T08:42:34.505Z,20.42
2022-11-15T08:45:23.411Z,50.17
2022-11-15T08:48:15.237Z,31.33
2022-11-15T08:51:04.452Z,29.30
2022-11-15T08:53:53.400Z,21.92
2022-11-15T08:56:42.757Z,11.80
2022-11-15T08:59:32.084Z,22.50
2022-11-15T09:02:21.779Z,11.80
2022-11-15T09:05:13.579Z,15.13
2022-11-15T09:08:18.788Z,14.90
2022-11-15T09:11:13.772Z,16.63
2022-11-15T09:14:03.042Z,21.33
2022-11-15T09:16:51.842Z,15.30
2022-11-15T09:19:41.192Z,15.20
2022-11-15T09:22:32.823Z,23.50
2022-11-15T09:25:22.023Z,16.27
2022-11-15T09:28:12.190Z,20.13
2022-11-15T09:31:02.670Z,13.25
2022-11-15T09:33:51.610Z,15.07
2022-11-15T09:36:40.837Z,18.88
2022-11-15T09:39:32.748Z,24.92
2022-11-15T09:42:48.875Z,18.55
2022-11-15T09:45:46.922Z,28.33
2022-11-15T09:48:54.163Z,24.10
2022-11-15T09:51:51.146Z,18.02
2022-11-15T09:57:27.271Z,24.02
2022-11-15T10:00:31.348Z,28.30
2022-11-15T10:03:18.158Z,21.42
2022-11-15T10:05:51.216Z,24.88
2022-11-15T10:08:36.144Z,22.45
2022-11-15T10:11:36.265Z,28.47
2022-11-15T10:14:07.270Z,32.63
2022-11-15T10:17:09.934Z,24.15
2022-11-15T10:19:49.835Z,22.98
2022-11-15T10:22:39.386Z,35.60
2022-11-15T10:25:23.577Z,24.55
2022-11-15T10:28:08.372Z,25.90
2022-11-15T10:30:43.563Z,17.35
2022-11-15T10:33:35.020Z,21.67
2022-11-15T10:36:26.731Z,19.17
2022-11-15T10:39:01.839Z,27.90
2022-11-15T10:41:49.696Z,26.88
2022-11-15T10:44:29.665Z,30.38
2022-11-15T10:47:32.468Z,28.45
2022-11-15T10:50:10.601Z,107.53
2022-11-15T10:52:49.440Z,35.75
2022-11-15T10:55:28.901Z,34.63
2022-11-15T10:58:05.421Z,23.85
2022-11-15T11:00:39.788Z,26.52
2022-11-15T11:03:32.684Z,29.65
2022-11-15T11:06:12.203Z,23.35
2022-11-15T11:08:43.349Z,27.48
2022-11-15T11:11:13.762Z,37.28
2022-11-15T11:13:44.197Z,35.72
2022-11-15T11:16:36.256Z,27.65
2022-11-15T11:19:22.983Z,34.55
2022-11-15T11:22:04.158Z,29.42
2022-11-15T11:24:40.709Z,32.85
2022-11-15T11:27:31.139Z,29.27
2022-11-15T11:30:10.411Z,26.63
2022-11-15T11:33:14.799Z,32.38
2022-11-15T11:35:57.083Z,27.90
2022-11-15T11:38:55.972Z,22.23
2022-11-15T11:41:47.016Z,21.08
2022-11-15T11:44:33.380Z,20.00
2022-11-15T11:47:05.145Z,20.85
2022-11-15T11:49:42.260Z,29.63
2022-11-15T11:52:20.589Z,24.55
2022-11-15T11:54:59.759Z,18.23
2022-11-15T11:57:38.866Z,21.33
2022-11-15T12:00:21.252Z,43.15
2022-11-15T12:03:05.512Z,23.25
2022-11-15T12:05:41.526Z,25.85
2022-11-15T12:08:27.801Z,26.08
2022-11-15T12:11:05.004Z,23.13
2022-11-15T12:13:38.012Z,23.08
2022-11-15T12:16:15.960Z,22.70
2022-11-15T12:18:51.476Z,22.45
2022-11-15T12:24:07.103Z,23.90
2022-11-15T12:26:42.484Z,30.63
2022-11-15T12:31:53.924Z,29.10
2022-11-15T12:34:42.123Z,24.92
2022-11-15T12:37:38.888Z,21.65
2022-11-15T12:40:24.045Z,23.48
2022-11-15T12:43:43.141Z,24.13
2022-11-15T12:46:27.124Z,25.90
2022-11-15T12:49:00.680Z,21.60
2022-11-15T12:52:12.457Z,28.08
2022-11-15T12:54:59.026Z,25.10
2022-11-15T12:57:38.051Z,22.08
2022-11-15T13:00:42.079Z,26.13
2022-11-15T13:03:31.365Z,25.27
2022-11-15T13:06:14.115Z,23.67
2022-11-15T13:08:53.925Z,26.70
2022-11-15T13:11:49.971Z,23.10
2022-11-15T13:14:45.110Z,22.75
2022-11-15T13:17:34.989Z,46.63
2022-11-15T13:20:21.179Z,26.77
2022-11-15T13:22:57.546Z,24.15
2022-11-15T13:25:52.034Z,25.13
2022-11-15T13:28:32.170Z,30.63
2022-11-15T13:31:05.056Z,23.50
2022-11-15T13:33:41.019Z,28.48
2022-11-15T13:36:17.610Z,27.83
2022-11-15T13:38:48.502Z,31.48
2022-11-15T13:41:24.199Z,32.20
2022-11-15T13:43:56.081Z,28.13
2022-11-15T13:46:28.421Z,29.10
2022-11-15T13:49:03.519Z,33.05
2022-11-15T13:51:41.451Z,25.17
2022-11-15T13:54:20.464Z,30.98
2022-11-15T13:56:56.958Z,31.70
2022-11-15T13:59:30.215Z,33.10
2022-11-15T14:02:05.397Z,35.42
2022-11-15T14:04:39.063Z,28.50
2022-11-15T14:07:09.609Z,34.58
2022-11-15T14:09:42.390Z,32.38
2022-11-15T14:12:33.170Z,34.10
2022-11-15T14:15:05.901Z,33.00
2022-11-15T14:17:45.628Z,30.98
2022-11-15T14:20:33.136Z,26.80
2022-11-15T14:23:04.985Z,30.80
2022-11-15T14:25:36.377Z,25.83
2022-11-15T14:28:19.764Z,25.10
2022-11-15T14:30:51.446Z,27.02
2022-11-15T14:33:25.736Z,29.38
2022-11-15T14:35:59.901Z,30.98
2022-11-15T14:38:30.992Z,25.95
2022-11-15T14:41:01.673Z,25.25
2022-11-15T14:43:32.279Z,25.13
2022-11-15T14:46:02.786Z,25.45
2022-11-15T14:48:33.786Z,27.45
2022-11-15T14:51:07.634Z,25.83
2022-11-15T14:53:38.135Z,35.45
2022-11-15T14:56:08.745Z,28.45
2022-11-15T14:58:39.350Z,28.08
2022-11-15T15:01:16.761Z,33.17
2022-11-15T15:03:48.090Z,34.72
2022-11-15T15:06:21.293Z,24.83
2022-11-15T15:08:52.218Z,33.92
2022-11-15T15:11:27.221Z,30.33
2022-11-15T15:13:59.454Z,28.50
2022-11-15T15:16:29.996Z,30.05
2022-11-15T15:19:00.586Z,25.65
2022-11-15T15:21:37.151Z,26.27
2022-11-15T15:24:08.411Z,35.20
2022-11-15T15:26:40.160Z,32.47
2022-11-15T15:29:10.689Z,32.90
2022-11-15T15:31:41.443Z,33.47
2022-11-15T15:34:16.633Z,28.38
2022-11-15T15:36:50.261Z,26.25
2022-11-15T15:39:20.811Z,26.05
2022-11-15T15:41:54.870Z,30.60
2022-11-15T15:44:28.350Z,34.55
2022-11-15T15:46:59.096Z,30.27
2022-11-15T15:49:29.734Z,29.20
2022-11-15T15:52:03.034Z,31.58
2022-11-15T15:54:33.605Z,28.15
2022-11-15T15:57:04.341Z,29.35
2022-11-15T15:59:35.709Z,30.73
2022-11-15T16:02:06.780Z,38.35
2022-11-15T16:04:37.305Z,30.90
2022-11-15T16:07:19.737Z,29.25
2022-11-15T16:10:05.474Z,31.33
2022-11-15T16:12:37.580Z,34.75
2022-11-15T16:15:08.768Z,36.70
2022-11-15T16:17:43.352Z,36.75
2022-11-15T16:20:35.162Z,37.10
2022-11-15T16:23:10.698Z,35.67
2022-11-15T16:28:24.417Z,55.97
2022-11-15T16:31:04.617Z,46.45
2022-11-15T16:33:35.953Z,45.22
2022-11-15T16:36:07.557Z,46.35
2022-11-15T16:38:40.628Z,43.83
2022-11-15T16:41:11.301Z,44.50
2022-11-15T16:43:41.784Z,44.20
2022-11-15T16:46:18.379Z,52.65
2022-11-15T16:48:49.218Z,41.45
2022-11-15T16:51:20.154Z,43.30
2022-11-15T16:53:53.554Z,48.03
2022-11-15T16:56:28.541Z,40.55
2022-11-15T16:59:00.742Z,34.22
2022-11-15T17:01:33.631Z,42.63
2022-11-15T17:04:13.104Z,42.85
2022-11-15T17:06:44.633Z,45.50
2022-11-15T17:09:19.012Z,49.90
2022-11-15T17:11:50.168Z,50.25
2022-11-15T17:14:21.912Z,41.47
2022-11-15T17:16:52.460Z,41.80
2022-11-15T17:19:24.564Z,40.33
2022-11-15T17:21:55.140Z,42.65
2022-11-15T17:24:28.220Z,43.75
2022-11-15T17:26:58.658Z,37.00
2022-11-15T17:29:29.110Z,41.58
2022-11-15T17:31:59.675Z,43.30
2022-11-15T17:34:30.211Z,38.55
2022-11-15T17:37:00.709Z,47.35
2022-11-15T17:39:33.777Z,45.72
2022-11-15T17:42:04.421Z,48.45
2022-11-15T17:44:35.274Z,51.40
2022-11-15T17:47:05.891Z,52.13
2022-11-15T17:49:39.626Z,56.78
2022-11-15T17:52:10.708Z,53.17
2022-11-15T17:54:44.023Z,53.30
2022-11-15T17:57:14.537Z,49.65
2022-11-15T17:59:45.038Z,45.80
2022-11-15T18:02:15.970Z,45.78
2022-11-15T18:04:46.640Z,43.88
2022-11-15T18:07:17.079Z,46.45
2022-11-15T18:09:50.166Z,49.08
2022-11-15T18:12:20.565Z,46.55
2022-11-15T18:14:51.076Z,52.67
2022-11-15T18:17:21.584Z,53.63
2022-11-15T18:19:52.149Z,48.30
2022-11-15T18:22:23.676Z,46.40
2022-11-15T18:24:56.705Z,46.92
2022-11-15T18:27:27.302Z,42.90
2022-11-15T18:29:57.811Z,40.85
2022-11-15T18:32:29.120Z,41.90
2022-11-15T18:34:59.634Z,44.42
2022-11-15T18:37:30.316Z,41.65
2022-11-15T18:40:04.059Z,36.95
2022-11-15T18:42:34.841Z,34.20
2022-11-15T18:45:05.450Z,35.20
2022-11-15T18:47:37.824Z,32.42
2022-11-15T18:50:09.160Z,30.08
2022-11-15T18:52:39.813Z,31.80
2022-11-15T18:55:14.636Z,32.15
2022-11-15T18:57:45.371Z,33.03
2022-11-15T19:00:17.539Z,31.02
2022-11-15T19:02:48.206Z,33.92
2022-11-15T19:05:21.551Z,37.97
2022-11-15T19:07:52.105Z,37.15
2022-11-15T19:10:25.272Z,40.63
2022-11-15T19:12:55.834Z,46.92
2022-11-15T19:15:26.384Z,45.60
2022-11-15T19:17:57.847Z,42.45
2022-11-15T19:20:28.517Z,37.63
2022-11-15T19:22:59.103Z,36.45
2022-11-15T19:25:32.345Z,38.88
2022-11-15T19:28:02.829Z,36.92
2022-11-15T19:30:33.387Z,40.75
2022-11-15T19:33:03.845Z,36.97
2022-11-15T19:35:34.504Z,42.78
2022-11-15T19:38:05.092Z,38.75
2022-11-15T19:40:39.080Z,39.90
2022-11-15T19:43:10.417Z,33.25
2022-11-15T19:45:40.955Z,33.03
2022-11-15T19:48:11.449Z,31.23
2022-11-15T19:50:42.276Z,33.22
2022-11-15T19:53:12.826Z,40.08
2022-11-15T19:55:56.115Z,42.88
2022-11-15T19:58:28.300Z,43.13
2022-11-15T20:01:03.994Z,42.38
2022-11-15T20:03:36.117Z,48.10
2022-11-15T20:06:08.797Z,47.28
2022-11-15T20:08:39.636Z,40.35
2022-11-15T20:11:12.977Z,41.72
2022-11-15T20:13:44.526Z,44.20
2022-11-15T20:16:19.410Z,54.85
2022-11-15T20:18:50.667Z,57.40
2022-11-15T20:21:21.769Z,60.35
2022-11-15T20:23:53.238Z,52.65
2022-11-15T20:26:26.706Z,51.58
2022-11-15T20:29:01.366Z,51.90
2022-11-15T20:31:32.691Z,40.85
2022-11-15T20:34:03.567Z,30.38
2022-11-15T20:36:34.539Z,31.52
2022-11-15T20:39:05.209Z,29.70
2022-11-15T20:41:38.340Z,38.60
2022-11-15T20:44:08.935Z,39.00
2022-11-15T20:46:39.554Z,41.78
2022-11-15T20:49:10.062Z,46.03
2022-11-15T20:51:41.095Z,41.92
2022-11-15T20:54:11.935Z,42.35
2022-11-15T20:56:45.709Z,63.08
2022-11-15T20:59:16.476Z,62.83
2022-11-15T21:01:48.282Z,37.95
2022-11-15T21:04:18.870Z,40.85
2022-11-15T21:06:49.571Z,39.83
2022-11-15T21:09:32.415Z,39.25
2022-11-15T21:12:14.567Z,33.55
2022-11-15T21:14:49.146Z,30.20
2022-11-15T21:17:19.719Z,41.08
2022-11-15T21:19:50.276Z,39.67
2022-11-15T21:22:20.784Z,36.10
2022-11-15T21:24:51.235Z,33.30
2022-11-15T21:27:24.369Z,37.72
2022-11-15T21:29:55.030Z,32.53
2022-11-15T21:32:25.661Z,34.03
2022-11-15T21:34:56.143Z,36.58
2022-11-15T21:37:26.637Z,45.35
2022-11-15T21:39:57.160Z,45.25
2022-11-15T21:42:30.332Z,36.30
2022-11-15T21:45:00.875Z,36.22
2022-11-15T21:47:31.396Z,36.22
2022-11-15T21:50:01.925Z,40.28
2022-11-15T21:52:33.840Z,37.17
2022-11-15T21:55:04.409Z,51.00
2022-11-15T21:57:37.686Z,40.53
2022-11-15T22:00:21.324Z,37.10
2022-11-15T22:02:51.792Z,30.95
2022-11-15T22:05:22.681Z,26.63
2022-11-15T22:07:53.552Z,30.20
2022-11-15T22:10:24.172Z,34.85
2022-11-15T22:12:57.348Z,31.27
2022-11-15T22:15:28.112Z,36.50
2022-11-15T22:18:01.800Z,39.03
2022-11-15T22:20:48.256Z,42.17
2022-11-15T22:23:19.201Z,45.97
2022-11-15T22:25:50.096Z,44.95
2022-11-15T22:28:24.232Z,43.55
2022-11-15T22:30:57.039Z,40.47
2022-11-15T22:33:30.385Z,43.28
2022-11-15T22:36:01.929Z,43.08
2022-11-15T22:38:47.007Z,45.72
2022-11-15T22:41:17.564Z,48.03
2022-11-15T22:43:51.268Z,46.13
2022-11-15T22:46:22.128Z,45.47
2022-11-15T22:48:52.698Z,47.42
2022-11-15T22:51:23.609Z,46.20
2022-11-15T22:53:54.450Z,45.17
2022-11-15T22:56:25.146Z,46.20
2022-11-15T22:58:58.685Z,43.53
2022-11-15T23:01:29.459Z,39.95
2022-11-15T23:04:00.459Z,43.25
2022-11-15T23:06:31.194Z,39.90
2022-11-15T23:09:01.796Z,42.72
2022-11-15T23:11:53.606Z,42.00
2022-11-15T23:14:27.411Z,40.78
2022-11-15T23:16:57.981Z,39.63
2022-11-15T23:19:28.577Z,42.65
2022-11-15T23:22:11.497Z,41.60
2022-11-15T23:24:42.026Z,41.42
2022-11-15T23:27:15.437Z,40.65
2022-11-15T23:30:01.239Z,44.92
2022-11-15T23:35:14.350Z,38.58
2022-11-15T23:37:45.348Z,38.22
2022-11-15T23:40:16.280Z,40.45
2022-11-15T23:42:46.964Z,38.90
2022-11-15T23:45:20.386Z,35.50
2022-11-15T23:47:51.100Z,33.83
2022-11-15T23:50:21.907Z,39.08
2022-11-15T23:52:52.676Z,38.83
2022-11-15T23:55:23.476Z,39.60
2022-11-15T23:57:54.226Z,40.17
